sensor_id;sensor_type;location;lat;lon;timestamp;P1;durP1;ratioP1;P2;durP2;ratioP2
25299;SDS011;13241;51.208;4.432;2022-10-31T00:01:22;9.57;;;4.75;;
25299;SDS011;13241;51.208;4.432;2022-10-31T00:03:51;9.48;;;5.57;;
25299;SDS011;13241;51.208;4.432;2022-10-31T00:08:53;9.50;;;4.45;;
25299;SDS011;13241;51.208;4.432;2022-10-31T00:11:25;7.18;;;4.10;;
25299;SDS011;13241;51.208;4.432;2022-10-31T00:13:53;8.75;;;4.20;;
25299;SDS011;13241;51.208;4.432;2022-10-31T00:16:21;8.88;;;4.28;;
25299;SDS011;13241;51.208;4.432;2022-10-31T00:18:53;13.25;;;5.07;;
25299;SDS011;13241;51.208;4.432;2022-10-31T00:21:22;10.88;;;4.93;;
25299;SDS011;13241;51.208;4.432;2022-10-31T00:23:50;8.50;;;4.05;;
25299;SDS011;13241;51.208;4.432;2022-10-31T00:26:17;6.28;;;4.05;;
25299;SDS011;13241;51.208;4.432;2022-10-31T00:28:44;10.07;;;3.97;;
25299;SDS011;13241;51.208;4.432;2022-10-31T00:31:11;9.23;;;4.40;;
25299;SDS011;13241;51.208;4.432;2022-10-31T00:33:39;10.00;;;4.10;;
25299;SDS011;13241;51.208;4.432;2022-10-31T00:36:07;11.50;;;4.40;;
25299;SDS011;13241;51.208;4.432;2022-10-31T00:38:37;8.00;;;4.60;;
25299;SDS011;13241;51.208;4.432;2022-10-31T00:41:04;8.90;;;4.75;;
25299;SDS011;13241;51.208;4.432;2022-10-31T00:43:31;9.82;;;3.97;;
25299;SDS011;13241;51.208;4.432;2022-10-31T00:45:58;7.65;;;4.80;;
25299;SDS011;13241;51.208;4.432;2022-10-31T00:48:25;7.80;;;4.07;;
25299;SDS011;13241;51.208;4.432;2022-10-31T00:50:52;8.52;;;4.57;;
25299;SDS011;13241;51.208;4.432;2022-10-31T00:53:20;10.90;;;4.13;;
25299;SDS011;13241;51.208;4.432;2022-10-31T00:55:47;11.98;;;4.50;;
25299;SDS011;13241;51.208;4.432;2022-10-31T00:58:15;13.63;;;4.50;;
25299;SDS011;13241;51.208;4.432;2022-10-31T01:00:43;11.85;;;4.82;;
25299;SDS011;13241;51.208;4.432;2022-10-31T01:03:17;11.73;;;4.85;;
25299;SDS011;13241;51.208;4.432;2022-10-31T01:05:43;11.32;;;4.53;;
25299;SDS011;13241;51.208;4.432;2022-10-31T01:08:10;8.57;;;4.75;;
25299;SDS011;13241;51.208;4.432;2022-10-31T01:10:37;9.35;;;4.32;;
25299;SDS011;13241;51.208;4.432;2022-10-31T01:13:04;12.50;;;5.22;;
25299;SDS011;13241;51.208;4.432;2022-10-31T01:15:30;5.55;;;3.53;;
25299;SDS011;13241;51.208;4.432;2022-10-31T01:17:58;9.23;;;4.10;;
25299;SDS011;13241;51.208;4.432;2022-10-31T01:20:29;9.32;;;4.43;;
25299;SDS011;13241;51.208;4.432;2022-10-31T01:22:56;9.27;;;4.45;;
25299;SDS011;13241;51.208;4.432;2022-10-31T01:25:23;7.57;;;5.30;;
25299;SDS011;13241;51.208;4.432;2022-10-31T01:27:50;12.35;;;4.97;;
25299;SDS011;13241;51.208;4.432;2022-10-31T01:30:17;10.85;;;4.63;;
25299;SDS011;13241;51.208;4.432;2022-10-31T01:32:43;8.90;;;4.05;;
25299;SDS011;13241;51.208;4.432;2022-10-31T01:35:10;9.18;;;4.43;;
25299;SDS011;13241;51.208;4.432;2022-10-31T01:37:37;10.85;;;5.30;;
25299;SDS011;13241;51.208;4.432;2022-10-31T01:40:04;10.90;;;4.88;;
25299;SDS011;13241;51.208;4.432;2022-10-31T01:42:31;11.13;;;5.07;;
25299;SDS011;13241;51.208;4.432;2022-10-31T01:44:59;16.00;;;5.38;;
25299;SDS011;13241;51.208;4.432;2022-10-31T01:47:30;10.93;;;5.03;;
25299;SDS011;13241;51.208;4.432;2022-10-31T01:50:23;7.95;;;4.50;;
25299;SDS011;13241;51.208;4.432;2022-10-31T01:52:56;8.10;;;4.53;;
25299;SDS011;13241;51.208;4.432;2022-10-31T01:55:28;16.13;;;5.53;;
25299;SDS011;13241;51.208;4.432;2022-10-31T01:58:08;18.27;;;5.28;;
25299;SDS011;13241;51.208;4.432;2022-10-31T02:00:39;11.63;;;5.50;;
25299;SDS011;13241;51.208;4.432;2022-10-31T02:03:11;13.15;;;5.43;;
25299;SDS011;13241;51.208;4.432;2022-10-31T02:05:38;12.95;;;5.40;;
25299;SDS011;13241;51.208;4.432;2022-10-31T02:10:42;11.93;;;5.55;;
25299;SDS011;13241;51.208;4.432;2022-10-31T02:13:10;17.02;;;5.47;;
25299;SDS011;13241;51.208;4.432;2022-10-31T02:15:44;8.25;;;4.32;;
25299;SDS011;13241;51.208;4.432;2022-10-31T02:18:13;10.18;;;5.53;;
25299;SDS011;13241;51.208;4.432;2022-10-31T02:20:44;8.48;;;5.07;;
25299;SDS011;13241;51.208;4.432;2022-10-31T02:31:42;12.05;;;5.63;;
25299;SDS011;13241;51.208;4.432;2022-10-31T02:37:49;16.27;;;5.70;;
25299;SDS011;13241;51.208;4.432;2022-10-31T02:40:35;13.10;;;6.00;;
25299;SDS011;13241;51.208;4.432;2022-10-31T02:49:12;8.45;;;4.88;;
25299;SDS011;13241;51.208;4.432;2022-10-31T02:52:16;8.48;;;5.05;;
25299;SDS011;13241;51.208;4.432;2022-10-31T02:54:47;9.40;;;4.88;;
25299;SDS011;13241;51.208;4.432;2022-10-31T03:00:10;12.43;;;5.82;;
25299;SDS011;13241;51.208;4.432;2022-10-31T03:08:12;17.25;;;5.47;;
25299;SDS011;13241;51.208;4.432;2022-10-31T03:10:47;12.73;;;5.57;;
25299;SDS011;13241;51.208;4.432;2022-10-31T03:13:26;14.50;;;6.07;;
25299;SDS011;13241;51.208;4.432;2022-10-31T03:19:20;14.77;;;5.55;;
25299;SDS011;13241;51.208;4.432;2022-10-31T03:21:55;12.20;;;5.97;;
25299;SDS011;13241;51.208;4.432;2022-10-31T03:24:30;12.10;;;5.10;;
25299;SDS011;13241;51.208;4.432;2022-10-31T03:27:02;10.88;;;5.43;;
25299;SDS011;13241;51.208;4.432;2022-10-31T03:29:32;11.48;;;4.85;;
25299;SDS011;13241;51.208;4.432;2022-10-31T03:32:14;10.80;;;6.15;;
25299;SDS011;13241;51.208;4.432;2022-10-31T03:34:47;9.73;;;5.20;;
25299;SDS011;13241;51.208;4.432;2022-10-31T03:37:17;10.98;;;5.43;;
25299;SDS011;13241;51.208;4.432;2022-10-31T03:39:47;13.95;;;4.80;;
25299;SDS011;13241;51.208;4.432;2022-10-31T03:42:20;9.55;;;5.05;;
25299;SDS011;13241;51.208;4.432;2022-10-31T03:45:03;12.88;;;5.18;;
25299;SDS011;13241;51.208;4.432;2022-10-31T03:47:32;14.90;;;5.30;;
25299;SDS011;13241;51.208;4.432;2022-10-31T03:50:00;8.70;;;5.13;;
25299;SDS011;13241;51.208;4.432;2022-10-31T03:53:04;10.73;;;5.25;;
25299;SDS011;13241;51.208;4.432;2022-10-31T03:58:36;14.43;;;5.30;;
25299;SDS011;13241;51.208;4.432;2022-10-31T04:01:11;14.50;;;5.00;;
25299;SDS011;13241;51.208;4.432;2022-10-31T04:03:39;10.60;;;5.18;;
25299;SDS011;13241;51.208;4.432;2022-10-31T04:06:09;9.77;;;5.10;;
25299;SDS011;13241;51.208;4.432;2022-10-31T04:09:00;10.05;;;5.18;;
25299;SDS011;13241;51.208;4.432;2022-10-31T04:11:29;8.20;;;5.07;;
25299;SDS011;13241;51.208;4.432;2022-10-31T04:16:47;9.65;;;4.88;;
25299;SDS011;13241;51.208;4.432;2022-10-31T04:19:15;11.43;;;5.05;;
25299;SDS011;13241;51.208;4.432;2022-10-31T04:21:47;10.38;;;5.25;;
25299;SDS011;13241;51.208;4.432;2022-10-31T04:24:14;10.70;;;5.75;;
25299;SDS011;13241;51.208;4.432;2022-10-31T04:29:41;12.77;;;5.20;;
25299;SDS011;13241;51.208;4.432;2022-10-31T04:32:13;18.70;;;5.53;;
25299;SDS011;13241;51.208;4.432;2022-10-31T04:34:45;9.98;;;5.63;;
25299;SDS011;13241;51.208;4.432;2022-10-31T04:39:46;9.65;;;5.18;;
25299;SDS011;13241;51.208;4.432;2022-10-31T04:42:34;10.55;;;5.32;;
25299;SDS011;13241;51.208;4.432;2022-10-31T04:45:02;9.55;;;5.82;;
25299;SDS011;13241;51.208;4.432;2022-10-31T04:47:43;10.85;;;6.43;;
25299;SDS011;13241;51.208;4.432;2022-10-31T04:50:14;10.63;;;5.43;;
25299;SDS011;13241;51.208;4.432;2022-10-31T04:52:45;8.02;;;5.70;;
25299;SDS011;13241;51.208;4.432;2022-10-31T04:55:20;10.27;;;6.00;;
25299;SDS011;13241;51.208;4.432;2022-10-31T04:58:12;10.05;;;5.22;;
25299;SDS011;13241;51.208;4.432;2022-10-31T05:00:40;10.57;;;5.75;;
25299;SDS011;13241;51.208;4.432;2022-10-31T05:03:10;11.52;;;5.47;;
25299;SDS011;13241;51.208;4.432;2022-10-31T05:05:37;15.95;;;6.28;;
25299;SDS011;13241;51.208;4.432;2022-10-31T05:08:04;10.82;;;6.65;;
25299;SDS011;13241;51.208;4.432;2022-10-31T05:10:31;10.63;;;6.40;;
25299;SDS011;13241;51.208;4.432;2022-10-31T05:13:00;13.25;;;5.13;;
25299;SDS011;13241;51.208;4.432;2022-10-31T05:15:32;10.93;;;5.80;;
25299;SDS011;13241;51.208;4.432;2022-10-31T05:18:19;15.60;;;6.55;;
25299;SDS011;13241;51.208;4.432;2022-10-31T05:21:09;8.93;;;5.07;;
25299;SDS011;13241;51.208;4.432;2022-10-31T05:23:47;12.93;;;5.72;;
25299;SDS011;13241;51.208;4.432;2022-10-31T05:26:14;10.05;;;4.72;;
25299;SDS011;13241;51.208;4.432;2022-10-31T05:28:44;14.15;;;5.55;;
25299;SDS011;13241;51.208;4.432;2022-10-31T05:31:11;11.35;;;5.80;;
25299;SDS011;13241;51.208;4.432;2022-10-31T05:33:40;8.80;;;5.18;;
25299;SDS011;13241;51.208;4.432;2022-10-31T05:36:26;10.05;;;5.40;;
25299;SDS011;13241;51.208;4.432;2022-10-31T05:39:08;10.88;;;5.82;;
25299;SDS011;13241;51.208;4.432;2022-10-31T05:41:44;10.32;;;5.43;;
25299;SDS011;13241;51.208;4.432;2022-10-31T05:44:20;8.27;;;4.72;;
25299;SDS011;13241;51.208;4.432;2022-10-31T05:47:07;8.35;;;4.30;;
25299;SDS011;13241;51.208;4.432;2022-10-31T05:50:09;10.82;;;4.63;;
25299;SDS011;13241;51.208;4.432;2022-10-31T05:53:01;8.85;;;4.63;;
25299;SDS011;13241;51.208;4.432;2022-10-31T05:55:34;9.93;;;5.05;;
25299;SDS011;13241;51.208;4.432;2022-10-31T05:58:10;11.18;;;4.85;;
25299;SDS011;13241;51.208;4.432;2022-10-31T06:00:40;7.53;;;4.45;;
25299;SDS011;13241;51.208;4.432;2022-10-31T06:03:10;9.25;;;4.72;;
25299;SDS011;13241;51.208;4.432;2022-10-31T06:05:43;10.25;;;4.90;;
25299;SDS011;13241;51.208;4.432;2022-10-31T06:08:16;9.23;;;5.40;;
25299;SDS011;13241;51.208;4.432;2022-10-31T06:10:43;10.55;;;4.55;;
25299;SDS011;13241;51.208;4.432;2022-10-31T06:13:12;10.77;;;5.38;;
25299;SDS011;13241;51.208;4.432;2022-10-31T06:15:43;13.15;;;5.10;;
25299;SDS011;13241;51.208;4.432;2022-10-31T06:18:11;7.80;;;4.85;;
25299;SDS011;13241;51.208;4.432;2022-10-31T06:20:47;7.55;;;4.63;;
25299;SDS011;13241;51.208;4.432;2022-10-31T06:23:14;9.30;;;4.65;;
25299;SDS011;13241;51.208;4.432;2022-10-31T06:25:43;7.63;;;4.70;;
25299;SDS011;13241;51.208;4.432;2022-10-31T06:28:14;7.78;;;4.45;;
25299;SDS011;13241;51.208;4.432;2022-10-31T06:31:01;13.00;;;5.55;;
25299;SDS011;13241;51.208;4.432;2022-10-31T06:33:31;8.60;;;4.13;;
25299;SDS011;13241;51.208;4.432;2022-10-31T06:36:00;8.65;;;4.32;;
25299;SDS011;13241;51.208;4.432;2022-10-31T06:38:27;7.78;;;4.55;;
25299;SDS011;13241;51.208;4.432;2022-10-31T06:40:56;11.77;;;5.07;;
25299;SDS011;13241;51.208;4.432;2022-10-31T06:43:25;8.43;;;4.45;;
25299;SDS011;13241;51.208;4.432;2022-10-31T06:46:11;9.55;;;4.75;;
25299;SDS011;13241;51.208;4.432;2022-10-31T06:48:58;9.65;;;5.65;;
25299;SDS011;13241;51.208;4.432;2022-10-31T06:51:38;14.27;;;5.60;;
25299;SDS011;13241;51.208;4.432;2022-10-31T06:54:06;11.40;;;5.95;;
25299;SDS011;13241;51.208;4.432;2022-10-31T06:56:33;8.07;;;4.95;;
25299;SDS011;13241;51.208;4.432;2022-10-31T06:59:01;10.63;;;5.07;;
25299;SDS011;13241;51.208;4.432;2022-10-31T07:01:47;11.82;;;5.50;;
25299;SDS011;13241;51.208;4.432;2022-10-31T07:04:14;10.18;;;4.85;;
25299;SDS011;13241;51.208;4.432;2022-10-31T07:06:40;11.02;;;5.93;;
25299;SDS011;13241;51.208;4.432;2022-10-31T07:09:07;12.07;;;5.20;;
25299;SDS011;13241;51.208;4.432;2022-10-31T07:11:35;9.50;;;5.13;;
25299;SDS011;13241;51.208;4.432;2022-10-31T07:14:02;13.90;;;5.95;;
25299;SDS011;13241;51.208;4.432;2022-10-31T07:16:30;8.75;;;5.97;;
25299;SDS011;13241;51.208;4.432;2022-10-31T07:18:58;13.23;;;4.80;;
25299;SDS011;13241;51.208;4.432;2022-10-31T07:21:25;12.48;;;5.40;;
25299;SDS011;13241;51.208;4.432;2022-10-31T07:23:53;14.15;;;5.20;;
25299;SDS011;13241;51.208;4.432;2022-10-31T07:26:48;19.38;;;5.97;;
25299;SDS011;13241;51.208;4.432;2022-10-31T07:29:16;12.60;;;5.35;;
25299;SDS011;13241;51.208;4.432;2022-10-31T07:31:42;10.30;;;5.60;;
25299;SDS011;13241;51.208;4.432;2022-10-31T07:34:19;10.68;;;6.18;;
25299;SDS011;13241;51.208;4.432;2022-10-31T07:37:15;11.88;;;5.50;;
25299;SDS011;13241;51.208;4.432;2022-10-31T07:39:43;10.70;;;5.93;;
25299;SDS011;13241;51.208;4.432;2022-10-31T07:42:10;9.73;;;6.18;;
25299;SDS011;13241;51.208;4.432;2022-10-31T07:44:42;12.02;;;5.45;;
25299;SDS011;13241;51.208;4.432;2022-10-31T07:47:27;13.48;;;6.28;;
25299;SDS011;13241;51.208;4.432;2022-10-31T07:50:27;16.63;;;6.07;;
25299;SDS011;13241;51.208;4.432;2022-10-31T07:53:15;12.95;;;5.80;;
25299;SDS011;13241;51.208;4.432;2022-10-31T07:55:49;14.55;;;6.68;;
25299;SDS011;13241;51.208;4.432;2022-10-31T07:58:18;10.27;;;5.75;;
25299;SDS011;13241;51.208;4.432;2022-10-31T08:00:45;9.25;;;5.43;;
25299;SDS011;13241;51.208;4.432;2022-10-31T08:03:21;11.30;;;6.15;;
25299;SDS011;13241;51.208;4.432;2022-10-31T08:06:06;13.35;;;5.97;;
25299;SDS011;13241;51.208;4.432;2022-10-31T08:08:51;14.02;;;5.90;;
25299;SDS011;13241;51.208;4.432;2022-10-31T08:11:18;9.68;;;6.10;;
25299;SDS011;13241;51.208;4.432;2022-10-31T08:13:46;12.75;;;5.72;;
25299;SDS011;13241;51.208;4.432;2022-10-31T08:16:14;12.77;;;5.97;;
25299;SDS011;13241;51.208;4.432;2022-10-31T08:18:53;9.20;;;6.03;;
25299;SDS011;13241;51.208;4.432;2022-10-31T08:21:22;12.05;;;6.25;;
25299;SDS011;13241;51.208;4.432;2022-10-31T08:23:51;16.95;;;6.07;;
25299;SDS011;13241;51.208;4.432;2022-10-31T08:26:22;13.27;;;6.07;;
25299;SDS011;13241;51.208;4.432;2022-10-31T08:28:52;11.90;;;6.15;;
25299;SDS011;13241;51.208;4.432;2022-10-31T08:31:24;11.02;;;6.10;;
25299;SDS011;13241;51.208;4.432;2022-10-31T08:34:18;11.02;;;5.85;;
25299;SDS011;13241;51.208;4.432;2022-10-31T08:37:03;15.10;;;7.43;;
25299;SDS011;13241;51.208;4.432;2022-10-31T08:39:44;14.10;;;7.78;;
25299;SDS011;13241;51.208;4.432;2022-10-31T08:42:11;12.13;;;6.53;;
25299;SDS011;13241;51.208;4.432;2022-10-31T08:44:38;12.38;;;6.90;;
25299;SDS011;13241;51.208;4.432;2022-10-31T08:47:04;12.00;;;6.63;;
25299;SDS011;13241;51.208;4.432;2022-10-31T08:52:06;11.85;;;6.97;;
25299;SDS011;13241;51.208;4.432;2022-10-31T08:54:40;17.05;;;5.93;;
25299;SDS011;13241;51.208;4.432;2022-10-31T08:57:27;12.27;;;7.18;;
25299;SDS011;13241;51.208;4.432;2022-10-31T09:06:12;21.15;;;7.75;;
25299;SDS011;13241;51.208;4.432;2022-10-31T09:08:39;17.98;;;6.75;;
25299;SDS011;13241;51.208;4.432;2022-10-31T09:11:06;18.40;;;6.78;;
25299;SDS011;13241;51.208;4.432;2022-10-31T09:13:52;18.58;;;7.18;;
25299;SDS011;13241;51.208;4.432;2022-10-31T09:16:39;20.15;;;6.38;;
25299;SDS011;13241;51.208;4.432;2022-10-31T09:19:13;20.02;;;6.85;;
25299;SDS011;13241;51.208;4.432;2022-10-31T09:21:44;19.38;;;6.35;;
25299;SDS011;13241;51.208;4.432;2022-10-31T09:24:11;11.45;;;5.65;;
25299;SDS011;13241;51.208;4.432;2022-10-31T09:26:40;15.32;;;6.88;;
25299;SDS011;13241;51.208;4.432;2022-10-31T09:29:17;10.50;;;6.22;;
25299;SDS011;13241;51.208;4.432;2022-10-31T09:31:52;12.68;;;6.55;;
25299;SDS011;13241;51.208;4.432;2022-10-31T09:34:27;13.43;;;6.60;;
25299;SDS011;13241;51.208;4.432;2022-10-31T09:37:14;16.15;;;7.82;;
25299;SDS011;13241;51.208;4.432;2022-10-31T09:39:41;20.13;;;7.75;;
25299;SDS011;13241;51.208;4.432;2022-10-31T09:45:20;22.27;;;7.85;;
25299;SDS011;13241;51.208;4.432;2022-10-31T09:51:23;19.35;;;8.55;;
25299;SDS011;13241;51.208;4.432;2022-10-31T09:54:32;13.90;;;7.35;;
25299;SDS011;13241;51.208;4.432;2022-10-31T09:57:02;17.30;;;7.00;;
25299;SDS011;13241;51.208;4.432;2022-10-31T09:59:37;14.77;;;6.90;;
25299;SDS011;13241;51.208;4.432;2022-10-31T10:07:32;17.38;;;8.10;;
25299;SDS011;13241;51.208;4.432;2022-10-31T10:10:31;22.63;;;9.38;;
25299;SDS011;13241;51.208;4.432;2022-10-31T10:16:28;19.20;;;7.97;;
25299;SDS011;13241;51.208;4.432;2022-10-31T10:28:07;17.38;;;8.02;;
25299;SDS011;13241;51.208;4.432;2022-10-31T10:31:03;21.70;;;7.60;;
25299;SDS011;13241;51.208;4.432;2022-10-31T10:33:42;17.48;;;8.70;;
25299;SDS011;13241;51.208;4.432;2022-10-31T10:36:30;19.67;;;8.25;;
25299;SDS011;13241;51.208;4.432;2022-10-31T10:39:08;15.43;;;8.38;;
25299;SDS011;13241;51.208;4.432;2022-10-31T10:41:44;22.10;;;8.60;;
25299;SDS011;13241;51.208;4.432;2022-10-31T10:44:44;24.90;;;9.05;;
25299;SDS011;13241;51.208;4.432;2022-10-31T10:47:41;20.13;;;8.68;;
25299;SDS011;13241;51.208;4.432;2022-10-31T10:50:12;18.65;;;8.43;;
25299;SDS011;13241;51.208;4.432;2022-10-31T10:56:11;22.10;;;10.07;;
25299;SDS011;13241;51.208;4.432;2022-10-31T10:58:44;21.15;;;10.43;;
25299;SDS011;13241;51.208;4.432;2022-10-31T11:01:12;26.05;;;9.27;;
25299;SDS011;13241;51.208;4.432;2022-10-31T11:03:41;23.63;;;10.07;;
25299;SDS011;13241;51.208;4.432;2022-10-31T11:06:21;19.42;;;9.43;;
25299;SDS011;13241;51.208;4.432;2022-10-31T11:08:52;22.80;;;10.32;;
25299;SDS011;13241;51.208;4.432;2022-10-31T11:11:26;21.42;;;9.68;;
25299;SDS011;13241;51.208;4.432;2022-10-31T11:14:00;21.25;;;8.90;;
25299;SDS011;13241;51.208;4.432;2022-10-31T11:16:40;19.90;;;9.82;;
25299;SDS011;13241;51.208;4.432;2022-10-31T11:21:49;23.75;;;11.00;;
25299;SDS011;13241;51.208;4.432;2022-10-31T11:24:20;20.98;;;10.40;;
25299;SDS011;13241;51.208;4.432;2022-10-31T11:26:49;22.40;;;9.68;;
25299;SDS011;13241;51.208;4.432;2022-10-31T11:29:22;20.67;;;10.15;;
25299;SDS011;13241;51.208;4.432;2022-10-31T11:31:53;22.85;;;11.23;;
25299;SDS011;13241;51.208;4.432;2022-10-31T11:37:12;21.30;;;10.13;;
25299;SDS011;13241;51.208;4.432;2022-10-31T11:39:45;33.67;;;11.02;;
25299;SDS011;13241;51.208;4.432;2022-10-31T11:42:21;20.90;;;11.10;;
25299;SDS011;13241;51.208;4.432;2022-10-31T11:44:51;27.92;;;12.25;;
25299;SDS011;13241;51.208;4.432;2022-10-31T11:47:29;26.50;;;11.15;;
25299;SDS011;13241;51.208;4.432;2022-10-31T11:50:00;23.95;;;11.15;;
25299;SDS011;13241;51.208;4.432;2022-10-31T11:52:36;26.70;;;10.93;;
25299;SDS011;13241;51.208;4.432;2022-10-31T11:57:55;30.48;;;12.20;;
25299;SDS011;13241;51.208;4.432;2022-10-31T12:00:33;26.77;;;13.43;;
25299;SDS011;13241;51.208;4.432;2022-10-31T12:03:06;31.20;;;13.68;;
25299;SDS011;13241;51.208;4.432;2022-10-31T12:08:32;25.17;;;11.88;;
25299;SDS011;13241;51.208;4.432;2022-10-31T12:17:05;28.30;;;11.90;;
25299;SDS011;13241;51.208;4.432;2022-10-31T12:20:00;31.92;;;11.82;;
25299;SDS011;13241;51.208;4.432;2022-10-31T12:25:20;28.40;;;11.50;;
25299;SDS011;13241;51.208;4.432;2022-10-31T12:31:01;29.88;;;12.27;;
25299;SDS011;13241;51.208;4.432;2022-10-31T12:36:29;23.05;;;10.57;;
25299;SDS011;13241;51.208;4.432;2022-10-31T12:39:24;34.33;;;12.18;;
25299;SDS011;13241;51.208;4.432;2022-10-31T12:50:31;26.33;;;11.43;;
25299;SDS011;13241;51.208;4.432;2022-10-31T12:58:57;21.65;;;9.18;;
25299;SDS011;13241;51.208;4.432;2022-10-31T13:01:53;29.20;;;10.63;;
25299;SDS011;13241;51.208;4.432;2022-10-31T13:04:28;25.53;;;10.47;;
25299;SDS011;13241;51.208;4.432;2022-10-31T13:07:04;24.67;;;10.80;;
25299;SDS011;13241;51.208;4.432;2022-10-31T13:12:25;19.33;;;9.77;;
25299;SDS011;13241;51.208;4.432;2022-10-31T13:14:59;20.88;;;10.25;;
25299;SDS011;13241;51.208;4.432;2022-10-31T13:17:53;20.30;;;10.38;;
25299;SDS011;13241;51.208;4.432;2022-10-31T13:20:29;22.40;;;9.60;;
25299;SDS011;13241;51.208;4.432;2022-10-31T13:23:08;25.20;;;10.43;;
25299;SDS011;13241;51.208;4.432;2022-10-31T13:26:14;24.58;;;10.77;;
25299;SDS011;13241;51.208;4.432;2022-10-31T13:29:05;21.35;;;9.95;;
25299;SDS011;13241;51.208;4.432;2022-10-31T13:31:41;29.85;;;10.13;;
25299;SDS011;13241;51.208;4.432;2022-10-31T13:36:56;31.85;;;10.75;;
25299;SDS011;13241;51.208;4.432;2022-10-31T13:39:55;26.48;;;10.25;;
25299;SDS011;13241;51.208;4.432;2022-10-31T13:45:29;21.45;;;8.80;;
25299;SDS011;13241;51.208;4.432;2022-10-31T13:48:01;17.83;;;8.82;;
25299;SDS011;13241;51.208;4.432;2022-10-31T13:51:09;21.45;;;8.90;;
25299;SDS011;13241;51.208;4.432;2022-10-31T14:01:36;19.08;;;7.53;;
25299;SDS011;13241;51.208;4.432;2022-10-31T14:04:16;18.27;;;8.55;;
25299;SDS011;13241;51.208;4.432;2022-10-31T14:09:34;18.35;;;6.70;;
25299;SDS011;13241;51.208;4.432;2022-10-31T14:12:26;11.93;;;5.93;;
25299;SDS011;13241;51.208;4.432;2022-10-31T14:15:24;15.00;;;6.40;;
25299;SDS011;13241;51.208;4.432;2022-10-31T14:17:54;8.10;;;4.95;;
25299;SDS011;13241;51.208;4.432;2022-10-31T14:23:25;16.92;;;5.80;;
25299;SDS011;13241;51.208;4.432;2022-10-31T14:28:49;16.40;;;5.78;;
25299;SDS011;13241;51.208;4.432;2022-10-31T14:34:29;11.45;;;4.63;;
25299;SDS011;13241;51.208;4.432;2022-10-31T14:47:54;13.32;;;4.70;;
25299;SDS011;13241;51.208;4.432;2022-10-31T14:51:07;10.65;;;5.00;;
25299;SDS011;13241;51.208;4.432;2022-10-31T14:53:53;10.05;;;5.38;;
25299;SDS011;13241;51.208;4.432;2022-10-31T14:56:26;11.65;;;5.10;;
25299;SDS011;13241;51.208;4.432;2022-10-31T14:59:07;14.30;;;4.97;;
25299;SDS011;13241;51.208;4.432;2022-10-31T15:01:40;10.20;;;4.97;;
25299;SDS011;13241;51.208;4.432;2022-10-31T15:04:21;17.70;;;5.32;;
25299;SDS011;13241;51.208;4.432;2022-10-31T15:06:52;16.05;;;5.47;;
25299;SDS011;13241;51.208;4.432;2022-10-31T15:09:25;10.82;;;5.55;;
25299;SDS011;13241;51.208;4.432;2022-10-31T15:12:00;10.20;;;4.75;;
25299;SDS011;13241;51.208;4.432;2022-10-31T15:14:47;10.85;;;5.30;;
25299;SDS011;13241;51.208;4.432;2022-10-31T15:17:14;11.93;;;5.15;;
25299;SDS011;13241;51.208;4.432;2022-10-31T15:19:42;13.20;;;4.95;;
25299;SDS011;13241;51.208;4.432;2022-10-31T15:22:10;11.85;;;5.20;;
25299;SDS011;13241;51.208;4.432;2022-10-31T15:24:42;10.55;;;5.30;;
25299;SDS011;13241;51.208;4.432;2022-10-31T15:27:11;13.43;;;4.43;;
25299;SDS011;13241;51.208;4.432;2022-10-31T15:29:54;10.38;;;5.15;;
25299;SDS011;13241;51.208;4.432;2022-10-31T15:32:25;14.80;;;5.32;;
25299;SDS011;13241;51.208;4.432;2022-10-31T15:34:54;15.77;;;5.18;;
25299;SDS011;13241;51.208;4.432;2022-10-31T15:37:23;15.75;;;5.85;;
25299;SDS011;13241;51.208;4.432;2022-10-31T15:39:51;10.90;;;4.93;;
25299;SDS011;13241;51.208;4.432;2022-10-31T15:42:33;19.63;;;5.68;;
25299;SDS011;13241;51.208;4.432;2022-10-31T15:45:16;18.58;;;5.38;;
25299;SDS011;13241;51.208;4.432;2022-10-31T15:47:49;13.93;;;5.43;;
25299;SDS011;13241;51.208;4.432;2022-10-31T15:50:32;15.88;;;5.00;;
25299;SDS011;13241;51.208;4.432;2022-10-31T15:55:30;15.35;;;4.22;;
25299;SDS011;13241;51.208;4.432;2022-10-31T15:58:09;17.88;;;5.28;;
25299;SDS011;13241;51.208;4.432;2022-10-31T16:00:38;12.90;;;4.30;;
25299;SDS011;13241;51.208;4.432;2022-10-31T16:08:26;17.67;;;4.75;;
25299;SDS011;13241;51.208;4.432;2022-10-31T16:11:01;9.10;;;4.10;;
25299;SDS011;13241;51.208;4.432;2022-10-31T16:13:36;10.75;;;4.75;;
25299;SDS011;13241;51.208;4.432;2022-10-31T16:16:13;15.32;;;4.40;;
25299;SDS011;13241;51.208;4.432;2022-10-31T16:19:03;15.38;;;4.75;;
25299;SDS011;13241;51.208;4.432;2022-10-31T16:21:34;13.45;;;4.15;;
25299;SDS011;13241;51.208;4.432;2022-10-31T16:24:49;17.15;;;5.18;;
25299;SDS011;13241;51.208;4.432;2022-10-31T16:27:06;10.77;;;5.18;;
25299;SDS011;13241;51.208;4.432;2022-10-31T16:29:49;22.70;;;5.90;;
25299;SDS011;13241;51.208;4.432;2022-10-31T16:32:33;12.38;;;5.15;;
25299;SDS011;13241;51.208;4.432;2022-10-31T16:35:16;14.13;;;5.87;;
25299;SDS011;13241;51.208;4.432;2022-10-31T16:37:44;12.00;;;5.35;;
25299;SDS011;13241;51.208;4.432;2022-10-31T16:40:12;7.72;;;4.75;;
25299;SDS011;13241;51.208;4.432;2022-10-31T16:42:43;19.38;;;6.38;;
25299;SDS011;13241;51.208;4.432;2022-10-31T16:45:15;16.02;;;6.22;;
25299;SDS011;13241;51.208;4.432;2022-10-31T16:47:45;17.52;;;6.97;;
25299;SDS011;13241;51.208;4.432;2022-10-31T16:52:45;21.10;;;7.80;;
25299;SDS011;13241;51.208;4.432;2022-10-31T16:55:33;19.48;;;6.72;;
25299;SDS011;13241;51.208;4.432;2022-10-31T16:58:07;15.00;;;6.32;;
25299;SDS011;13241;51.208;4.432;2022-10-31T17:00:40;19.65;;;6.68;;
25299;SDS011;13241;51.208;4.432;2022-10-31T17:03:07;19.23;;;7.03;;
25299;SDS011;13241;51.208;4.432;2022-10-31T17:05:37;25.30;;;7.43;;
25299;SDS011;13241;51.208;4.432;2022-10-31T17:08:04;14.13;;;8.20;;
25299;SDS011;13241;51.208;4.432;2022-10-31T17:10:31;21.70;;;7.50;;
25299;SDS011;13241;51.208;4.432;2022-10-31T17:12:59;16.05;;;7.18;;
25299;SDS011;13241;51.208;4.432;2022-10-31T17:15:32;16.48;;;7.00;;
25299;SDS011;13241;51.208;4.432;2022-10-31T17:18:05;17.05;;;7.80;;
25299;SDS011;13241;51.208;4.432;2022-10-31T17:20:32;23.35;;;8.45;;
25299;SDS011;13241;51.208;4.432;2022-10-31T17:22:59;15.07;;;7.38;;
25299;SDS011;13241;51.208;4.432;2022-10-31T17:25:28;25.10;;;7.00;;
25299;SDS011;13241;51.208;4.432;2022-10-31T17:27:59;20.30;;;7.90;;
25299;SDS011;13241;51.208;4.432;2022-10-31T17:30:27;19.65;;;8.05;;
25299;SDS011;13241;51.208;4.432;2022-10-31T17:32:54;15.88;;;7.93;;
25299;SDS011;13241;51.208;4.432;2022-10-31T17:35:21;19.40;;;7.80;;
25299;SDS011;13241;51.208;4.432;2022-10-31T17:37:50;18.45;;;8.18;;
25299;SDS011;13241;51.208;4.432;2022-10-31T17:40:18;16.80;;;7.63;;
25299;SDS011;13241;51.208;4.432;2022-10-31T17:42:50;22.08;;;8.30;;
25299;SDS011;13241;51.208;4.432;2022-10-31T17:45:18;13.50;;;7.15;;
25299;SDS011;13241;51.208;4.432;2022-10-31T17:47:47;22.77;;;8.57;;
25299;SDS011;13241;51.208;4.432;2022-10-31T17:50:15;24.95;;;8.45;;
25299;SDS011;13241;51.208;4.432;2022-10-31T17:52:47;14.13;;;7.15;;
25299;SDS011;13241;51.208;4.432;2022-10-31T17:55:14;22.83;;;6.93;;
25299;SDS011;13241;51.208;4.432;2022-10-31T17:57:42;22.17;;;7.78;;
25299;SDS011;13241;51.208;4.432;2022-10-31T18:00:13;20.60;;;7.95;;
25299;SDS011;13241;51.208;4.432;2022-10-31T18:02:42;14.57;;;7.63;;
25299;SDS011;13241;51.208;4.432;2022-10-31T18:05:09;19.95;;;8.23;;
25299;SDS011;13241;51.208;4.432;2022-10-31T18:07:38;17.45;;;7.75;;
25299;SDS011;13241;51.208;4.432;2022-10-31T18:10:05;15.18;;;7.05;;